sensor_id;sensor_type;location;lat;lon;timestamp;temperature;humidity
4787;DHT22;62338;48.832;9.422;2023-02-08T00:01:55;-4.10;1.00
4787;DHT22;62338;48.832;9.422;2023-02-08T00:03:56;-4.10;99.90
4787;DHT22;62338;48.832;9.422;2023-02-08T00:05:58;-4.00;2.20
4787;DHT22;62338;48.832;9.422;2023-02-08T00:08:00;-4.00;99.90
4787;DHT22;62338;48.832;9.422;2023-02-08T00:10:02;-4.00;99.90
4787;DHT22;62338;48.832;9.422;2023-02-08T00:12:07;-4.00;70.90
4787;DHT22;62338;48.832;9.422;2023-02-08T00:14:08;-4.10;99.90
4787;DHT22;62338;48.832;9.422;2023-02-08T00:16:12;-4.00;24.60
4787;DHT22;62338;48.832;9.422;2023-02-08T00:18:17;-4.10;99.90
4787;DHT22;62338;48.832;9.422;2023-02-08T00:20:19;-4.10;99.90
4787;DHT22;62338;48.832;9.422;2023-02-08T00:22:21;-4.10;99.90
4787;DHT22;62338;48.832;9.422;2023-02-08T00:24:23;-4.10;99.90
4787;DHT22;62338;48.832;9.422;2023-02-08T00:26:24;-4.20;99.90
4787;DHT22;62338;48.832;9.422;2023-02-08T00:28:26;-4.20;1.00
4787;DHT22;62338;48.832;9.422;2023-02-08T00:30:28;-4.20;1.00
4787;DHT22;62338;48.832;9.422;2023-02-08T00:32:30;-4.20;1.00
4787;DHT22;62338;48.832;9.422;2023-02-08T00:34:32;-4.20;1.00
4787;DHT22;62338;48.832;9.422;2023-02-08T00:36:35;-4.30;1.00
4787;DHT22;62338;48.832;9.422;2023-02-08T00:38:37;-4.30;81.60
4787;DHT22;62338;48.832;9.422;2023-02-08T00:40:39;-4.30;1.00
4787;DHT22;62338;48.832;9.422;2023-02-08T00:42:41;-4.30;98.90
4787;DHT22;62338;48.832;9.422;2023-02-08T00:44:43;-4.30;99.90
4787;DHT22;62338;48.832;9.422;2023-02-08T00:46:45;-4.20;1.00
4787;DHT22;62338;48.832;9.422;2023-02-08T00:48:47;-4.20;1.00
4787;DHT22;62338;48.832;9.422;2023-02-08T00:51:18;-4.20;1.00
4787;DHT22;62338;48.832;9.422;2023-02-08T00:53:20;-4.20;86.40
4787;DHT22;62338;48.832;9.422;2023-02-08T00:55:22;-4.20;57.10
4787;DHT22;62338;48.832;9.422;2023-02-08T00:57:24;-4.10;40.40
4787;DHT22;62338;48.832;9.422;2023-02-08T00:59:26;-4.20;73.80
4787;DHT22;62338;48.832;9.422;2023-02-08T01:01:28;-4.10;20.20
4787;DHT22;62338;48.832;9.422;2023-02-08T01:03:32;-4.10;1.00
4787;DHT22;62338;48.832;9.422;2023-02-08T01:05:37;-4.10;1.00
4787;DHT22;62338;48.832;9.422;2023-02-08T01:07:39;-4.10;1.00
4787;DHT22;62338;48.832;9.422;2023-02-08T01:09:41;-4.10;91.90
4787;DHT22;62338;48.832;9.422;2023-02-08T01:11:42;-4.10;1.00
4787;DHT22;62338;48.832;9.422;2023-02-08T01:13:44;-4.00;1.00
4787;DHT22;62338;48.832;9.422;2023-02-08T01:15:46;-4.00;1.00
4787;DHT22;62338;48.832;9.422;2023-02-08T01:17:53;-4.10;44.90
4787;DHT22;62338;48.832;9.422;2023-02-08T01:19:55;-4.10;72.10
4787;DHT22;62338;48.832;9.422;2023-02-08T01:21:57;-4.10;99.90
4787;DHT22;62338;48.832;9.422;2023-02-08T01:23:59;-4.10;99.90
4787;DHT22;62338;48.832;9.422;2023-02-08T01:26:01;-4.20;1.00
4787;DHT22;62338;48.832;9.422;2023-02-08T01:28:03;-4.20;1.00
4787;DHT22;62338;48.832;9.422;2023-02-08T01:30:06;-4.20;1.00
4787;DHT22;62338;48.832;9.422;2023-02-08T01:32:08;-4.20;1.00
4787;DHT22;62338;48.832;9.422;2023-02-08T01:34:10;-4.30;49.60
4787;DHT22;62338;48.832;9.422;2023-02-08T01:36:12;-4.30;1.00
4787;DHT22;62338;48.832;9.422;2023-02-08T01:38:14;-4.30;1.00
4787;DHT22;62338;48.832;9.422;2023-02-08T01:40:16;-4.30;1.00
4787;DHT22;62338;48.832;9.422;2023-02-08T01:42:18;-4.30;71.90
4787;DHT22;62338;48.832;9.422;2023-02-08T01:46:59;-4.30;6.30
4787;DHT22;62338;48.832;9.422;2023-02-08T01:49:48;-4.30;22.60
4787;DHT22;62338;48.832;9.422;2023-02-08T01:51:28;-4.30;1.00
4787;DHT22;62338;48.832;9.422;2023-02-08T01:53:32;-4.30;1.00
4787;DHT22;62338;48.832;9.422;2023-02-08T01:55:37;-4.30;1.00
4787;DHT22;62338;48.832;9.422;2023-02-08T01:57:40;-4.30;80.20
4787;DHT22;62338;48.832;9.422;2023-02-08T01:59:50;-4.40;99.90
4787;DHT22;62338;48.832;9.422;2023-02-08T02:01:54;-4.40;99.90
4787;DHT22;62338;48.832;9.422;2023-02-08T02:04:00;-4.50;99.90
4787;DHT22;62338;48.832;9.422;2023-02-08T02:06:17;-4.60;1.00
4787;DHT22;62338;48.832;9.422;2023-02-08T02:08:21;-4.60;1.00
4787;DHT22;62338;48.832;9.422;2023-02-08T02:10:32;-4.60;1.00
4787;DHT22;62338;48.832;9.422;2023-02-08T02:12:35;-4.60;1.00
4787;DHT22;62338;48.832;9.422;2023-02-08T02:14:38;-4.60;1.00
4787;DHT22;62338;48.832;9.422;2023-02-08T02:16:40;-4.70;1.00
4787;DHT22;62338;48.832;9.422;2023-02-08T02:18:42;-4.70;1.00
4787;DHT22;62338;48.832;9.422;2023-02-08T02:33:32;-4.60;99.90
4787;DHT22;62338;48.832;9.422;2023-02-08T02:35:44;-4.60;99.90
4787;DHT22;62338;48.832;9.422;2023-02-08T02:38:00;-4.50;1.00
4787;DHT22;62338;48.832;9.422;2023-02-08T02:49:43;-4.60;99.90
4787;DHT22;62338;48.832;9.422;2023-02-08T02:51:55;-4.60;99.90
4787;DHT22;62338;48.832;9.422;2023-02-08T02:54:02;-4.70;99.90
4787;DHT22;62338;48.832;9.422;2023-02-08T02:56:11;-4.70;99.90
4787;DHT22;62338;48.832;9.422;2023-02-08T02:58:17;-4.70;99.90
4787;DHT22;62338;48.832;9.422;2023-02-08T03:00:22;-4.70;1.00
4787;DHT22;62338;48.832;9.422;2023-02-08T03:02:28;-4.80;99.90
4787;DHT22;62338;48.832;9.422;2023-02-08T03:06:45;-4.70;99.90
4787;DHT22;62338;48.832;9.422;2023-02-08T03:11:31;-4.70;99.90
4787;DHT22;62338;48.832;9.422;2023-02-08T03:16:19;-4.80;99.90
4787;DHT22;62338;48.832;9.422;2023-02-08T03:18:34;-4.80;99.90
4787;DHT22;62338;48.832;9.422;2023-02-08T03:20:37;-4.80;99.90
4787;DHT22;62338;48.832;9.422;2023-02-08T03:22:58;-4.80;99.90
4787;DHT22;62338;48.832;9.422;2023-02-08T03:25:17;-4.80;99.90
4787;DHT22;62338;48.832;9.422;2023-02-08T03:27:29;-4.70;1.00
4787;DHT22;62338;48.832;9.422;2023-02-08T03:29:38;-4.70;99.90
4787;DHT22;62338;48.832;9.422;2023-02-08T03:31:56;-4.70;1.00
4787;DHT22;62338;48.832;9.422;2023-02-08T03:34:16;-4.70;10.00
4787;DHT22;62338;48.832;9.422;2023-02-08T03:38:40;-4.80;99.90
4787;DHT22;62338;48.832;9.422;2023-02-08T03:40:46;-4.80;1.00
4787;DHT22;62338;48.832;9.422;2023-02-08T03:42:50;-4.80;24.00
4787;DHT22;62338;48.832;9.422;2023-02-08T03:44:57;-4.80;1.00
4787;DHT22;62338;48.832;9.422;2023-02-08T03:47:06;-4.80;1.00
4787;DHT22;62338;48.832;9.422;2023-02-08T03:49:17;-4.70;1.00
4787;DHT22;62338;48.832;9.422;2023-02-08T03:51:21;-4.80;1.00
4787;DHT22;62338;48.832;9.422;2023-02-08T03:53:24;-4.80;1.00
4787;DHT22;62338;48.832;9.422;2023-02-08T03:55:29;-4.80;1.00
4787;DHT22;62338;48.832;9.422;2023-02-08T03:58:19;-4.80;1.00
4787;DHT22;62338;48.832;9.422;2023-02-08T04:00:08;-4.80;1.00
4787;DHT22;62338;48.832;9.422;2023-02-08T04:02:14;-4.90;1.00
4787;DHT22;62338;48.832;9.422;2023-02-08T04:04:18;-4.90;99.90
4787;DHT22;62338;48.832;9.422;2023-02-08T04:06:21;-4.90;99.90
4787;DHT22;62338;48.832;9.422;2023-02-08T04:08:24;-4.80;99.90
4787;DHT22;62338;48.832;9.422;2023-02-08T04:10:26;-4.80;99.90
4787;DHT22;62338;48.832;9.422;2023-02-08T04:12:27;-4.80;99.90
4787;DHT22;62338;48.832;9.422;2023-02-08T04:14:29;-4.90;99.90
4787;DHT22;62338;48.832;9.422;2023-02-08T04:16:31;-4.90;99.90
4787;DHT22;62338;48.832;9.422;2023-02-08T04:18:32;-4.80;99.90
4787;DHT22;62338;48.832;9.422;2023-02-08T04:20:34;-4.90;99.90
4787;DHT22;62338;48.832;9.422;2023-02-08T04:22:36;-4.90;99.90
4787;DHT22;62338;48.832;9.422;2023-02-08T04:24:37;-4.90;99.90
4787;DHT22;62338;48.832;9.422;2023-02-08T04:26:40;-4.90;99.90
4787;DHT22;62338;48.832;9.422;2023-02-08T04:28:41;-4.90;99.90
4787;DHT22;62338;48.832;9.422;2023-02-08T04:30:43;-4.90;99.90
4787;DHT22;62338;48.832;9.422;2023-02-08T04:32:45;-4.90;99.90
4787;DHT22;62338;48.832;9.422;2023-02-08T04:34:46;-4.90;35.20
4787;DHT22;62338;48.832;9.422;2023-02-08T04:36:48;-4.90;1.00
4787;DHT22;62338;48.832;9.422;2023-02-08T04:38:50;-4.80;1.00
4787;DHT22;62338;48.832;9.422;2023-02-08T04:40:51;-4.80;1.00
4787;DHT22;62338;48.832;9.422;2023-02-08T04:42:53;-4.80;99.90
4787;DHT22;62338;48.832;9.422;2023-02-08T04:44:55;-4.80;38.50
4787;DHT22;62338;48.832;9.422;2023-02-08T04:46:57;-4.80;1.00
4787;DHT22;62338;48.832;9.422;2023-02-08T04:48:58;-4.80;1.00
4787;DHT22;62338;48.832;9.422;2023-02-08T04:51:00;-4.80;1.00
4787;DHT22;62338;48.832;9.422;2023-02-08T04:53:02;-4.80;99.90
4787;DHT22;62338;48.832;9.422;2023-02-08T04:55:04;-4.80;1.00
4787;DHT22;62338;48.832;9.422;2023-02-08T04:57:05;-4.80;99.90
4787;DHT22;62338;48.832;9.422;2023-02-08T04:59:07;-4.80;99.90
4787;DHT22;62338;48.832;9.422;2023-02-08T05:01:09;-4.80;99.90
4787;DHT22;62338;48.832;9.422;2023-02-08T05:03:14;-4.80;99.90
4787;DHT22;62338;48.832;9.422;2023-02-08T05:05:16;-4.90;1.00
4787;DHT22;62338;48.832;9.422;2023-02-08T05:07:17;-4.90;1.00
4787;DHT22;62338;48.832;9.422;2023-02-08T05:09:19;-4.90;99.90
4787;DHT22;62338;48.832;9.422;2023-02-08T05:11:22;-5.00;1.00
4787;DHT22;62338;48.832;9.422;2023-02-08T05:13:24;-5.00;1.00
4787;DHT22;62338;48.832;9.422;2023-02-08T05:15:26;-5.00;1.00
4787;DHT22;62338;48.832;9.422;2023-02-08T05:17:27;-5.10;1.00
4787;DHT22;62338;48.832;9.422;2023-02-08T05:19:29;-5.10;1.00
4787;DHT22;62338;48.832;9.422;2023-02-08T05:21:31;-5.20;1.00
4787;DHT22;62338;48.832;9.422;2023-02-08T05:23:33;-5.20;1.00
4787;DHT22;62338;48.832;9.422;2023-02-08T05:25:36;-5.20;1.00
4787;DHT22;62338;48.832;9.422;2023-02-08T05:27:38;-5.20;1.00
4787;DHT22;62338;48.832;9.422;2023-02-08T05:29:40;-5.20;1.00
4787;DHT22;62338;48.832;9.422;2023-02-08T05:31:43;-5.30;1.00
4787;DHT22;62338;48.832;9.422;2023-02-08T05:33:45;-5.30;97.50
4787;DHT22;62338;48.832;9.422;2023-02-08T05:35:47;-5.40;99.90
4787;DHT22;62338;48.832;9.422;2023-02-08T05:37:49;-5.40;99.90
4787;DHT22;62338;48.832;9.422;2023-02-08T05:39:50;-5.40;1.00
4787;DHT22;62338;48.832;9.422;2023-02-08T05:41:52;-5.50;1.00
4787;DHT22;62338;48.832;9.422;2023-02-08T05:43:54;-5.50;1.00
4787;DHT22;62338;48.832;9.422;2023-02-08T05:45:55;-5.50;1.00
4787;DHT22;62338;48.832;9.422;2023-02-08T05:47:57;-5.50;1.00
4787;DHT22;62338;48.832;9.422;2023-02-08T05:49:59;-5.60;99.90
4787;DHT22;62338;48.832;9.422;2023-02-08T05:52:00;-5.70;99.90
4787;DHT22;62338;48.832;9.422;2023-02-08T05:54:02;-5.70;99.90
4787;DHT22;62338;48.832;9.422;2023-02-08T05:56:04;-5.70;99.90
4787;DHT22;62338;48.832;9.422;2023-02-08T05:58:06;-5.70;99.90
4787;DHT22;62338;48.832;9.422;2023-02-08T06:00:08;-5.70;9.80
4787;DHT22;62338;48.832;9.422;2023-02-08T06:02:10;-5.70;99.90
4787;DHT22;62338;48.832;9.422;2023-02-08T06:04:12;-5.70;99.90
4787;DHT22;62338;48.832;9.422;2023-02-08T06:06:13;-5.70;99.90
4787;DHT22;62338;48.832;9.422;2023-02-08T06:08:15;-5.80;99.90
4787;DHT22;62338;48.832;9.422;2023-02-08T06:10:17;-5.80;99.90
4787;DHT22;62338;48.832;9.422;2023-02-08T06:12:19;-5.80;73.00
4787;DHT22;62338;48.832;9.422;2023-02-08T06:14:20;-5.70;99.90
4787;DHT22;62338;48.832;9.422;2023-02-08T06:16:22;-5.70;1.00
4787;DHT22;62338;48.832;9.422;2023-02-08T06:18:24;-5.70;13.90
4787;DHT22;62338;48.832;9.422;2023-02-08T06:20:25;-5.70;1.00
4787;DHT22;62338;48.832;9.422;2023-02-08T06:22:27;-5.70;1.00
4787;DHT22;62338;48.832;9.422;2023-02-08T06:24:29;-5.70;1.00
4787;DHT22;62338;48.832;9.422;2023-02-08T06:26:32;-5.70;99.90
4787;DHT22;62338;48.832;9.422;2023-02-08T06:28:33;-5.70;1.00
4787;DHT22;62338;48.832;9.422;2023-02-08T06:30:36;-5.70;1.00
4787;DHT22;62338;48.832;9.422;2023-02-08T06:32:38;-5.60;99.90
4787;DHT22;62338;48.832;9.422;2023-02-08T06:34:40;-5.60;99.90
4787;DHT22;62338;48.832;9.422;2023-02-08T06:36:41;-5.50;95.70
4787;DHT22;62338;48.832;9.422;2023-02-08T06:38:43;-5.50;99.90
4787;DHT22;62338;48.832;9.422;2023-02-08T06:40:46;-5.50;1.00
4787;DHT22;62338;48.832;9.422;2023-02-08T06:42:48;-5.40;1.00
4787;DHT22;62338;48.832;9.422;2023-02-08T06:44:50;-5.40;1.00
4787;DHT22;62338;48.832;9.422;2023-02-08T06:46:56;-5.40;1.00
4787;DHT22;62338;48.832;9.422;2023-02-08T06:48:57;-5.40;99.90
4787;DHT22;62338;48.832;9.422;2023-02-08T06:51:01;-5.40;99.90
4787;DHT22;62338;48.832;9.422;2023-02-08T06:53:03;-5.40;99.90
4787;DHT22;62338;48.832;9.422;2023-02-08T06:55:05;-5.40;71.40
4787;DHT22;62338;48.832;9.422;2023-02-08T06:57:07;-5.40;99.90
4787;DHT22;62338;48.832;9.422;2023-02-08T06:59:09;-5.30;99.90
4787;DHT22;62338;48.832;9.422;2023-02-08T07:01:13;-5.30;99.90
4787;DHT22;62338;48.832;9.422;2023-02-08T07:03:15;-5.20;1.00
4787;DHT22;62338;48.832;9.422;2023-02-08T07:05:20;-5.20;1.00
4787;DHT22;62338;48.832;9.422;2023-02-08T07:07:22;-5.10;1.00
4787;DHT22;62338;48.832;9.422;2023-02-08T07:09:23;-5.00;99.90
4787;DHT22;62338;48.832;9.422;2023-02-08T07:11:25;-4.90;99.90
4787;DHT22;62338;48.832;9.422;2023-02-08T07:13:27;-4.80;99.90
4787;DHT22;62338;48.832;9.422;2023-02-08T07:15:28;-4.70;1.00
4787;DHT22;62338;48.832;9.422;2023-02-08T07:17:31;-4.50;99.90
4787;DHT22;62338;48.832;9.422;2023-02-08T07:19:33;-4.30;99.90
4787;DHT22;62338;48.832;9.422;2023-02-08T07:21:35;-4.20;1.00
4787;DHT22;62338;48.832;9.422;2023-02-08T07:23:40;-4.10;1.00
4787;DHT22;62338;48.832;9.422;2023-02-08T07:25:41;-4.00;1.00
4787;DHT22;62338;48.832;9.422;2023-02-08T07:27:43;-3.90;99.90
4787;DHT22;62338;48.832;9.422;2023-02-08T07:29:45;-3.70;99.90
4787;DHT22;62338;48.832;9.422;2023-02-08T07:31:46;-3.50;44.20
4787;DHT22;62338;48.832;9.422;2023-02-08T07:33:48;-3.10;1.00
4787;DHT22;62338;48.832;9.422;2023-02-08T07:35:50;-2.80;1.00
4787;DHT22;62338;48.832;9.422;2023-02-08T07:37:52;-2.50;99.90
4787;DHT22;62338;48.832;9.422;2023-02-08T07:39:54;-2.20;99.90
4787;DHT22;62338;48.832;9.422;2023-02-08T07:41:57;-2.00;1.00
4787;DHT22;62338;48.832;9.422;2023-02-08T07:43:59;-1.80;1.00
4787;DHT22;62338;48.832;9.422;2023-02-08T07:48:07;-1.50;1.00
4787;DHT22;62338;48.832;9.422;2023-02-08T07:50:09;-1.30;1.00
4787;DHT22;62338;48.832;9.422;2023-02-08T07:52:12;-0.90;1.00
4787;DHT22;62338;48.832;9.422;2023-02-08T07:54:13;-0.40;1.00
4787;DHT22;62338;48.832;9.422;2023-02-08T07:56:15;-0.10;99.90
4787;DHT22;62338;48.832;9.422;2023-02-08T07:58:18;0.40;99.90
4787;DHT22;62338;48.832;9.422;2023-02-08T08:00:19;0.90;99.90
4787;DHT22;62338;48.832;9.422;2023-02-08T08:02:21;1.30;99.90
4787;DHT22;62338;48.832;9.422;2023-02-08T08:04:23;1.40;99.90
4787;DHT22;62338;48.832;9.422;2023-02-08T08:06:25;1.60;99.90
4787;DHT22;62338;48.832;9.422;2023-02-08T08:08:26;1.60;99.90
4787;DHT22;62338;48.832;9.422;2023-02-08T08:10:28;1.50;99.90
4787;DHT22;62338;48.832;9.422;2023-02-08T08:12:30;1.50;99.90
4787;DHT22;62338;48.832;9.422;2023-02-08T08:14:31;1.70;99.90
4787;DHT22;62338;48.832;9.422;2023-02-08T08:16:33;1.70;99.90
4787;DHT22;62338;48.832;9.422;2023-02-08T08:18:35;2.00;99.90
4787;DHT22;62338;48.832;9.422;2023-02-08T08:20:37;2.40;99.90
4787;DHT22;62338;48.832;9.422;2023-02-08T08:22:39;2.70;99.90
4787;DHT22;62338;48.832;9.422;2023-02-08T08:24:41;3.20;99.90
4787;DHT22;62338;48.832;9.422;2023-02-08T08:26:42;3.60;99.90
4787;DHT22;62338;48.832;9.422;2023-02-08T08:28:44;4.00;99.90
4787;DHT22;62338;48.832;9.422;2023-02-08T08:30:47;4.30;99.90
4787;DHT22;62338;48.832;9.422;2023-02-08T08:32:49;4.60;99.90
4787;DHT22;62338;48.832;9.422;2023-02-08T08:34:50;5.00;99.90
4787;DHT22;62338;48.832;9.422;2023-02-08T08:36:52;5.00;99.90
4787;DHT22;62338;48.832;9.422;2023-02-08T08:38:54;5.20;99.90
4787;DHT22;62338;48.832;9.422;2023-02-08T08:40:56;5.20;99.90
4787;DHT22;62338;48.832;9.422;2023-02-08T08:42:57;5.40;99.90
4787;DHT22;62338;48.832;9.422;2023-02-08T08:44:59;5.80;99.90
4787;DHT22;62338;48.832;9.422;2023-02-08T08:47:01;5.80;99.20
4787;DHT22;62338;48.832;9.422;2023-02-08T08:49:03;5.70;95.20
4787;DHT22;62338;48.832;9.422;2023-02-08T08:51:05;5.50;90.90
4787;DHT22;62338;48.832;9.422;2023-02-08T08:53:07;5.60;89.40
4787;DHT22;62338;48.832;9.422;2023-02-08T08:55:09;5.50;81.40
4787;DHT22;62338;48.832;9.422;2023-02-08T08:57:11;5.20;72.00
4787;DHT22;62338;48.832;9.422;2023-02-08T08:59:12;5.00;68.20
4787;DHT22;62338;48.832;9.422;2023-02-08T09:01:14;5.20;67.30
4787;DHT22;62338;48.832;9.422;2023-02-08T09:03:16;5.40;67.00
4787;DHT22;62338;48.832;9.422;2023-02-08T09:05:18;5.70;67.80
4787;DHT22;62338;48.832;9.422;2023-02-08T09:07:19;6.00;67.50
4787;DHT22;62338;48.832;9.422;2023-02-08T09:09:21;6.10;63.70
4787;DHT22;62338;48.832;9.422;2023-02-08T09:11:23;5.90;58.10
4787;DHT22;62338;48.832;9.422;2023-02-08T09:13:25;6.00;56.00
4787;DHT22;62338;48.832;9.422;2023-02-08T09:15:26;6.20;55.30
4787;DHT22;62338;48.832;9.422;2023-02-08T09:17:28;6.10;51.00
4787;DHT22;62338;48.832;9.422;2023-02-08T09:19:30;6.30;51.40
4787;DHT22;62338;48.832;9.422;2023-02-08T09:21:32;6.50;49.40
4787;DHT22;62338;48.832;9.422;2023-02-08T09:23:34;6.50;46.70
4787;DHT22;62338;48.832;9.422;2023-02-08T09:25:36;6.60;44.60
4787;DHT22;62338;48.832;9.422;2023-02-08T09:27:38;6.70;42.20
4787;DHT22;62338;48.832;9.422;2023-02-08T09:29:40;6.80;41.50
4787;DHT22;62338;48.832;9.422;2023-02-08T09:31:41;7.00;40.60
4787;DHT22;62338;48.832;9.422;2023-02-08T09:33:43;7.20;39.40
4787;DHT22;62338;48.832;9.422;2023-02-08T09:35:45;7.50;38.90
4787;DHT22;62338;48.832;9.422;2023-02-08T09:37:53;7.80;39.00
4787;DHT22;62338;48.832;9.422;2023-02-08T09:39:55;7.90;36.80
4787;DHT22;62338;48.832;9.422;2023-02-08T09:42:21;8.00;34.50
4787;DHT22;62338;48.832;9.422;2023-02-08T09:44:56;8.10;29.90
4787;DHT22;62338;48.832;9.422;2023-02-08T09:47:43;8.10;26.90
4787;DHT22;62338;48.832;9.422;2023-02-08T09:49:41;8.00;25.00
4787;DHT22;62338;48.832;9.422;2023-02-08T09:51:50;8.40;25.30
4787;DHT22;62338;48.832;9.422;2023-02-08T09:53:58;8.40;22.60
4787;DHT22;62338;48.832;9.422;2023-02-08T09:56:04;8.20;19.00
4787;DHT22;62338;48.832;9.422;2023-02-08T09:58:40;8.20;17.80
4787;DHT22;62338;48.832;9.422;2023-02-08T10:00:46;8.30;15.60
4787;DHT22;62338;48.832;9.422;2023-02-08T10:02:48;8.30;13.30
4787;DHT22;62338;48.832;9.422;2023-02-08T10:04:58;8.30;11.40
4787;DHT22;62338;48.832;9.422;2023-02-08T10:07:01;8.40;11.80
4787;DHT22;62338;48.832;9.422;2023-02-08T10:09:05;8.80;12.00
4787;DHT22;62338;48.832;9.422;2023-02-08T10:13:33;8.50;6.60
4787;DHT22;62338;48.832;9.422;2023-02-08T10:15:57;8.80;6.60
4787;DHT22;62338;48.832;9.422;2023-02-08T10:27:39;8.60;1.00
4787;DHT22;62338;48.832;9.422;2023-02-08T10:36:36;8.10;1.00
4787;DHT22;62338;48.832;9.422;2023-02-08T10:38:42;8.40;1.00
4787;DHT22;62338;48.832;9.422;2023-02-08T10:41:02;8.50;2.00
4787;DHT22;62338;48.832;9.422;2023-02-08T10:46:04;9.20;1.00
4787;DHT22;62338;48.832;9.422;2023-02-08T10:48:14;9.40;1.00
4787;DHT22;62338;48.832;9.422;2023-02-08T10:50:45;9.30;1.00
4787;DHT22;62338;48.832;9.422;2023-02-08T10:52:48;9.60;1.00
4787;DHT22;62338;48.832;9.422;2023-02-08T10:54:50;9.50;1.00
4787;DHT22;62338;48.832;9.422;2023-02-08T10:56:57;9.60;1.00
4787;DHT22;62338;48.832;9.422;2023-02-08T10:59:21;9.60;1.00
4787;DHT22;62338;48.832;9.422;2023-02-08T11:01:24;9.30;1.00
4787;DHT22;62338;48.832;9.422;2023-02-08T11:03:28;9.10;1.00
4787;DHT22;62338;48.832;9.422;2023-02-08T11:05:34;8.80;1.00
4787;DHT22;62338;48.832;9.422;2023-02-08T11:07:37;8.90;1.00
4787;DHT22;62338;48.832;9.422;2023-02-08T11:09:39;8.90;1.00
4787;DHT22;62338;48.832;9.422;2023-02-08T11:11:41;8.60;1.00
4787;DHT22;62338;48.832;9.422;2023-02-08T11:13:48;8.20;1.00
4787;DHT22;62338;48.832;9.422;2023-02-08T11:15:52;7.90;1.00
4787;DHT22;62338;48.832;9.422;2023-02-08T11:17:58;8.20;1.00
4787;DHT22;62338;48.832;9.422;2023-02-08T11:20:01;8.40;1.00
4787;DHT22;62338;48.832;9.422;2023-02-08T11:22:03;7.80;1.00
4787;DHT22;62338;48.832;9.422;2023-02-08T11:28:31;8.10;1.00
4787;DHT22;62338;48.832;9.422;2023-02-08T11:30:33;8.50;1.00
4787;DHT22;62338;48.832;9.422;2023-02-08T11:32:35;8.70;1.00
4787;DHT22;62338;48.832;9.422;2023-02-08T11:34:37;8.70;1.00
4787;DHT22;62338;48.832;9.422;2023-02-08T11:36:45;8.70;1.00
4787;DHT22;62338;48.832;9.422;2023-02-08T11:38:50;8.80;1.00
4787;DHT22;62338;48.832;9.422;2023-02-08T11:40:53;8.70;1.00
4787;DHT22;62338;48.832;9.422;2023-02-08T11:42:57;8.10;1.00
4787;DHT22;62338;48.832;9.422;2023-02-08T11:44:59;7.70;1.00
4787;DHT22;62338;48.832;9.422;2023-02-08T11:47:04;7.50;1.00
4787;DHT22;62338;48.832;9.422;2023-02-08T11:49:20;7.50;1.00
4787;DHT22;62338;48.832;9.422;2023-02-08T11:51:33;7.80;1.00
4787;DHT22;62338;48.832;9.422;2023-02-08T11:53:39;8.20;1.00
4787;DHT22;62338;48.832;9.422;2023-02-08T11:55:41;8.00;1.00
4787;DHT22;62338;48.832;9.422;2023-02-08T12:00:23;7.60;1.00
4787;DHT22;62338;48.832;9.422;2023-02-08T12:04:36;7.70;1.00
4787;DHT22;62338;48.832;9.422;2023-02-08T12:16:01;7.60;1.00
4787;DHT22;62338;48.832;9.422;2023-02-08T12:20:43;7.50;1.00
4787;DHT22;62338;48.832;9.422;2023-02-08T12:27:34;7.50;1.00
4787;DHT22;62338;48.832;9.422;2023-02-08T12:29:42;7.40;1.00
4787;DHT22;62338;48.832;9.422;2023-02-08T12:34:01;7.70;1.00
4787;DHT22;62338;48.832;9.422;2023-02-08T12:36:24;8.00;1.00
4787;DHT22;62338;48.832;9.422;2023-02-08T12:41:20;8.10;1.00
4787;DHT22;62338;48.832;9.422;2023-02-08T12:45:51;7.90;1.00
4787;DHT22;62338;48.832;9.422;2023-02-08T12:48:14;7.90;1.00
4787;DHT22;62338;48.832;9.422;2023-02-08T12:54:41;8.10;1.00
4787;DHT22;62338;48.832;9.422;2023-02-08T12:56:47;8.20;1.00
4787;DHT22;62338;48.832;9.422;2023-02-08T12:59:04;8.20;1.00
4787;DHT22;62338;48.832;9.422;2023-02-08T13:01:27;8.30;1.00
4787;DHT22;62338;48.832;9.422;2023-02-08T13:05:48;8.20;1.00
4787;DHT22;62338;48.832;9.422;2023-02-08T13:08:22;7.90;1.00
4787;DHT22;62338;48.832;9.422;2023-02-08T13:10:36;7.40;1.00
4787;DHT22;62338;48.832;9.422;2023-02-08T13:12:48;7.00;1.00
4787;DHT22;62338;48.832;9.422;2023-02-08T13:15:29;7.30;1.00
4787;DHT22;62338;48.832;9.422;2023-02-08T13:17:50;7.70;1.00
4787;DHT22;62338;48.832;9.422;2023-02-08T13:20:02;7.80;1.00
4787;DHT22;62338;48.832;9.422;2023-02-08T13:22:04;8.10;1.00
4787;DHT22;62338;48.832;9.422;2023-02-08T13:24:18;8.40;1.00
4787;DHT22;62338;48.832;9.422;2023-02-08T13:26:26;8.50;1.00
4787;DHT22;62338;48.832;9.422;2023-02-08T13:28:28;8.40;1.00
4787;DHT22;62338;48.832;9.422;2023-02-08T13:30:31;8.20;1.00
4787;DHT22;62338;48.832;9.422;2023-02-08T13:32:39;8.30;1.00
4787;DHT22;62338;48.832;9.422;2023-02-08T13:34:51;8.30;1.00
4787;DHT22;62338;48.832;9.422;2023-02-08T13:36:58;8.30;1.00
4787;DHT22;62338;48.832;9.422;2023-02-08T13:39:03;8.20;1.00
4787;DHT22;62338;48.832;9.422;2023-02-08T13:41:13;8.50;1.00
4787;DHT22;62338;48.832;9.422;2023-02-08T13:45:38;8.80;1.00
4787;DHT22;62338;48.832;9.422;2023-02-08T13:47:47;8.90;1.00
4787;DHT22;62338;48.832;9.422;2023-02-08T13:49:51;9.40;1.00
4787;DHT22;62338;48.832;9.422;2023-02-08T13:51:54;9.50;1.00
4787;DHT22;62338;48.832;9.422;2023-02-08T13:55:59;9.50;1.00
4787;DHT22;62338;48.832;9.422;2023-02-08T14:02:27;9.60;1.00
4787;DHT22;62338;48.832;9.422;2023-02-08T14:04:32;9.80;1.00
4787;DHT22;62338;48.832;9.422;2023-02-08T14:07:00;9.80;1.00
4787;DHT22;62338;48.832;9.422;2023-02-08T14:09:08;9.90;1.00
4787;DHT22;62338;48.832;9.422;2023-02-08T14:13:57;9.70;1.00
4787;DHT22;62338;48.832;9.422;2023-02-08T14:18:30;9.50;1.00
4787;DHT22;62338;48.832;9.422;2023-02-08T14:20:35;9.50;1.00
4787;DHT22;62338;48.832;9.422;2023-02-08T14:22:51;9.70;1.00
4787;DHT22;62338;48.832;9.422;2023-02-08T14:25:07;9.90;1.00
4787;DHT22;62338;48.832;9.422;2023-02-08T14:27:30;9.80;1.00
4787;DHT22;62338;48.832;9.422;2023-02-08T14:29:34;9.70;1.00
4787;DHT22;62338;48.832;9.422;2023-02-08T14:31:38;9.50;1.00
4787;DHT22;62338;48.832;9.422;2023-02-08T14:33:55;9.30;1.00
4787;DHT22;62338;48.832;9.422;2023-02-08T14:36:00;9.50;1.00
4787;DHT22;62338;48.832;9.422;2023-02-08T14:40:30;9.70;1.00
4787;DHT22;62338;48.832;9.422;2023-02-08T14:43:01;9.60;1.00
4787;DHT22;62338;48.832;9.422;2023-02-08T14:45:04;9.20;1.00
4787;DHT22;62338;48.832;9.422;2023-02-08T14:49:25;9.10;1.00
4787;DHT22;62338;48.832;9.422;2023-02-08T14:51:33;8.80;1.00
4787;DHT22;62338;48.832;9.422;2023-02-08T14:53:58;8.60;1.00
4787;DHT22;62338;48.832;9.422;2023-02-08T14:56:20;8.30;1.00
4787;DHT22;62338;48.832;9.422;2023-02-08T14:58:41;8.20;1.00
4787;DHT22;62338;48.832;9.422;2023-02-08T15:00:44;7.90;1.00
4787;DHT22;62338;48.832;9.422;2023-02-08T15:02:47;7.60;1.00
4787;DHT22;62338;48.832;9.422;2023-02-08T15:04:49;7.10;1.00
4787;DHT22;62338;48.832;9.422;2023-02-08T15:07:07;6.60;1.00
4787;DHT22;62338;48.832;9.422;2023-02-08T15:09:21;6.20;1.00
4787;DHT22;62338;48.832;9.422;2023-02-08T15:11:27;5.60;1.00
4787;DHT22;62338;48.832;9.422;2023-02-08T15:13:30;4.90;1.00
4787;DHT22;62338;48.832;9.422;2023-02-08T15:15:35;4.30;1.00
4787;DHT22;62338;48.832;9.422;2023-02-08T15:17:45;3.80;1.00
4787;DHT22;62338;48.832;9.422;2023-02-08T15:19:49;3.40;1.00
4787;DHT22;62338;48.832;9.422;2023-02-08T15:21:53;3.20;1.00
4787;DHT22;62338;48.832;9.422;2023-02-08T15:26:20;3.00;18.20
4787;DHT22;62338;48.832;9.422;2023-02-08T15:28:27;2.90;45.90
4787;DHT22;62338;48.832;9.422;2023-02-08T15:30:35;2.80;61.20
4787;DHT22;62338;48.832;9.422;2023-02-08T15:32:39;2.60;95.50
4787;DHT22;62338;48.832;9.422;2023-02-08T15:34:48;2.30;99.90
4787;DHT22;62338;48.832;9.422;2023-02-08T15:36:52;2.00;99.90
4787;DHT22;62338;48.832;9.422;2023-02-08T15:38:56;1.80;99.90